createdAt,value
2019-02-05T00:00:56.791Z,101630.56
2019-02-05T00:03:24.816Z,101622.67
2019-02-05T00:05:52.776Z,101624.98
2019-02-05T00:08:21.370Z,101627.64
2019-02-05T00:10:49.323Z,101632.05
2019-02-05T00:13:18.994Z,101631.97
2019-02-05T00:15:46.932Z,101628.53
2019-02-05T00:18:14.806Z,101632.26
2019-02-05T00:20:42.953Z,101624.81
2019-02-05T00:23:10.898Z,101624.55
2019-02-05T00:25:38.921Z,101632.20
2019-02-05T00:28:07.302Z,101623.51
2019-02-05T00:30:35.304Z,101623.19
2019-02-05T00:33:03.528Z,101622.76
2019-02-05T00:35:31.386Z,101617.67
2019-02-05T00:37:59.389Z,101616.86
2019-02-05T00:40:27.338Z,101613.83
2019-02-05T00:42:55.377Z,101615.47
2019-02-05T00:45:23.585Z,101611.36
2019-02-05T00:47:51.452Z,101613.94
2019-02-05T00:50:19.753Z,101612.64
2019-02-05T00:52:47.901Z,101615.00
2019-02-05T00:55:16.065Z,101616.06
2019-02-05T00:57:44.671Z,101612.56
2019-02-05T01:00:24.261Z,101620.69
2019-02-05T01:02:52.287Z,101615.03
2019-02-05T01:05:20.477Z,101614.45
2019-02-05T01:07:48.721Z,101611.84
2019-02-05T01:10:17.195Z,101606.72
2019-02-05T01:12:45.203Z,101601.52
2019-02-05T01:15:15.013Z,101604.55
2019-02-05T01:17:42.971Z,101601.62
2019-02-05T01:20:13.529Z,101593.08
2019-02-05T01:22:41.491Z,101593.27
2019-02-05T01:25:09.629Z,101593.75
2019-02-05T01:27:37.592Z,101585.87
2019-02-05T01:30:06.925Z,101585.78
2019-02-05T01:32:34.814Z,101587.29
2019-02-05T01:35:04.110Z,101587.29
2019-02-05T01:37:32.050Z,101591.26
2019-02-05T01:39:59.897Z,101588.84
2019-02-05T01:42:27.937Z,101584.38
2019-02-05T01:44:56.291Z,101590.31
2019-02-05T01:47:24.252Z,101582.36
2019-02-05T01:49:52.263Z,101574.44
2019-02-05T01:52:20.286Z,101574.33
2019-02-05T01:54:48.115Z,101578.14
2019-02-05T01:57:15.990Z,101568.35
2019-02-05T01:59:43.819Z,101562.48
2019-02-05T02:02:12.211Z,101556.25
2019-02-05T02:04:39.962Z,101557.28
2019-02-05T02:07:08.494Z,101543.43
2019-02-05T02:09:38.924Z,101533.12
2019-02-05T02:12:06.999Z,101536.36
2019-02-05T02:14:34.927Z,101525.30
2019-02-05T02:17:03.000Z,101518.53
2019-02-05T02:19:32.879Z,101510.37
2019-02-05T02:22:00.785Z,101511.05
2019-02-05T02:24:28.736Z,101509.42
2019-02-05T02:26:56.791Z,101517.54
2019-02-05T02:29:24.769Z,101505.99
2019-02-05T02:31:52.792Z,101511.66
2019-02-05T02:34:20.615Z,101516.88
2019-02-05T02:36:48.465Z,101513.88
2019-02-05T02:39:16.288Z,101517.20
2019-02-05T02:41:44.245Z,101517.05
2019-02-05T02:44:12.073Z,101519.14
2019-02-05T02:46:39.903Z,101522.09
2019-02-05T02:49:07.874Z,101519.40
2019-02-05T02:51:36.180Z,101520.59
2019-02-05T02:54:04.357Z,101516.56
2019-02-05T02:56:32.370Z,101512.16
2019-02-05T02:59:00.384Z,101517.28
2019-02-05T03:01:28.319Z,101521.93
2019-02-05T03:03:56.115Z,101512.41
2019-02-05T03:06:23.874Z,101517.55
2019-02-05T03:08:51.768Z,101518.03
2019-02-05T03:11:19.733Z,101518.58
2019-02-05T03:13:47.720Z,101519.95
2019-02-05T03:16:15.580Z,101521.81
2019-02-05T03:18:44.032Z,101526.64
2019-02-05T03:21:11.787Z,101529.31
2019-02-05T03:23:39.523Z,101519.49
2019-02-05T03:26:07.578Z,101520.05
2019-02-05T03:28:35.522Z,101521.84
2019-02-05T03:31:03.890Z,101524.48
2019-02-05T03:33:31.743Z,101518.73
2019-02-05T03:35:59.857Z,101507.59
2019-02-05T03:38:27.728Z,101517.80
2019-02-05T03:41:03.971Z,101511.45
2019-02-05T03:43:32.729Z,101505.31
2019-02-05T03:46:02.662Z,101507.00
2019-02-05T03:48:32.567Z,101505.16
2019-02-05T03:51:27.582Z,101492.68
2019-02-05T03:54:06.440Z,101481.90
2019-02-05T03:57:04.301Z,101480.97
2019-02-05T04:00:07.963Z,101476.09
2019-02-05T04:02:53.094Z,101476.77
2019-02-05T04:06:13.639Z,101469.55
2019-02-05T04:09:05.023Z,101472.00
2019-02-05T04:12:01.501Z,101465.80
2019-02-05T04:14:49.062Z,101463.74
2019-02-05T04:18:06.271Z,101469.09
2019-02-05T04:21:14.249Z,101459.45
2019-02-05T04:24:25.164Z,101452.03
2019-02-05T04:27:43.388Z,101454.54
2019-02-05T04:30:44.645Z,101456.66
2019-02-05T04:33:35.022Z,101454.41
2019-02-05T04:36:43.338Z,101444.66
2019-02-05T04:39:52.925Z,101443.63
2019-02-05T04:42:59.811Z,101450.49
2019-02-05T04:46:00.605Z,101441.76
2019-02-05T04:49:00.667Z,101434.22
2019-02-05T04:52:06.015Z,101428.70
2019-02-05T04:55:33.769Z,101427.34
2019-02-05T04:58:12.422Z,101435.17
2019-02-05T05:01:04.380Z,101437.20
2019-02-05T05:04:12.650Z,101430.75
2019-02-05T05:07:16.766Z,101423.16
2019-02-05T05:09:59.036Z,101419.21
2019-02-05T05:12:28.269Z,101422.06
2019-02-05T05:14:56.364Z,101433.47
2019-02-05T05:17:24.099Z,101429.03
2019-02-05T05:19:52.393Z,101426.67
2019-02-05T05:22:20.416Z,101432.31
2019-02-05T05:24:48.873Z,101424.67
2019-02-05T05:27:19.014Z,101423.79
2019-02-05T05:29:47.669Z,101426.72
2019-02-05T05:32:16.542Z,101423.05
2019-02-05T05:34:44.574Z,101425.36
2019-02-05T05:37:11.037Z,101422.75
2019-02-05T05:39:38.975Z,101422.23
2019-02-05T05:42:06.833Z,101419.81
2019-02-05T05:44:35.568Z,101422.53
2019-02-05T05:47:04.463Z,101429.76
2019-02-05T05:49:32.764Z,101421.11
2019-02-05T05:52:00.642Z,101420.17
2019-02-05T05:54:28.732Z,101421.45
2019-02-05T05:56:56.659Z,101422.28
2019-02-05T05:59:24.523Z,101420.98
2019-02-05T06:01:52.497Z,101431.21
2019-02-05T06:04:20.760Z,101430.20
2019-02-05T06:06:48.528Z,101429.31
2019-02-05T06:09:16.449Z,101430.56
2019-02-05T06:11:44.392Z,101439.14
2019-02-05T06:14:12.426Z,101437.31
2019-02-05T06:16:40.277Z,101437.55
2019-02-05T06:19:08.731Z,101435.38
2019-02-05T06:21:36.662Z,101442.12
2019-02-05T06:24:05.080Z,101439.88
2019-02-05T06:26:33.184Z,101443.11
2019-02-05T06:29:01.168Z,101449.52
2019-02-05T06:31:29.014Z,101448.13
2019-02-05T06:33:56.938Z,101450.66
2019-02-05T06:36:24.660Z,101466.55
2019-02-05T06:38:52.675Z,101456.59
2019-02-05T06:41:20.801Z,101459.54
2019-02-05T06:43:48.794Z,101452.17
2019-02-05T06:46:16.604Z,101455.63
2019-02-05T06:48:44.588Z,101458.58
2019-02-05T06:51:12.819Z,101461.64
2019-02-05T06:53:40.631Z,101465.45
2019-02-05T06:56:08.527Z,101464.09
2019-02-05T06:58:46.146Z,101469.27
2019-02-05T07:01:06.700Z,101466.12
2019-02-05T07:03:34.793Z,101467.50
2019-02-05T07:06:02.728Z,101466.63
2019-02-05T07:08:31.200Z,101471.47
2019-02-05T07:10:59.219Z,101467.24
2019-02-05T07:13:27.173Z,101463.00
2019-02-05T07:15:55.264Z,101468.18
2019-02-05T07:18:23.035Z,101467.02
2019-02-05T07:20:50.876Z,101466.77
2019-02-05T07:23:18.705Z,101461.97
2019-02-05T07:25:47.637Z,101460.25
2019-02-05T07:28:15.466Z,101454.66
2019-02-05T07:30:43.326Z,101447.37
2019-02-05T07:33:11.506Z,101447.32
2019-02-05T07:35:39.737Z,101455.83
2019-02-05T07:38:07.676Z,101458.77
2019-02-05T07:40:35.703Z,101456.47
2019-02-05T07:43:03.990Z,101467.28
2019-02-05T07:45:32.068Z,101468.73
2019-02-05T07:47:59.855Z,101465.59
2019-02-05T07:50:27.806Z,101461.56
2019-02-05T07:52:55.854Z,101459.31
2019-02-05T07:55:24.369Z,101471.16
2019-02-05T07:57:52.313Z,101475.23
2019-02-05T08:00:22.884Z,101473.34
2019-02-05T08:02:50.649Z,101463.28
2019-02-05T08:05:20.906Z,101468.59
2019-02-05T08:07:49.583Z,101472.92
2019-02-05T08:10:19.223Z,101469.44
2019-02-05T08:12:47.643Z,101470.25
2019-02-05T08:15:17.643Z,101470.63
2019-02-05T08:17:45.737Z,101467.06
2019-02-05T08:20:13.695Z,101460.92
2019-02-05T08:22:41.646Z,101464.22
2019-02-05T08:25:11.189Z,101440.94
2019-02-05T08:27:39.118Z,101437.56
2019-02-05T08:30:17.634Z,101430.96
2019-02-05T08:32:45.501Z,101430.98
2019-02-05T08:35:15.052Z,101423.74
2019-02-05T08:37:42.987Z,101422.12
2019-02-05T08:40:13.749Z,101420.51
2019-02-05T08:42:42.184Z,101423.91
2019-02-05T08:45:14.273Z,101417.94
2019-02-05T08:47:42.197Z,101408.51
2019-02-05T08:50:12.786Z,101402.86
2019-02-05T08:52:40.752Z,101399.70
2019-02-05T08:55:10.021Z,101400.53
2019-02-05T08:57:49.857Z,101398.75
2019-02-05T09:00:25.914Z,101392.81
2019-02-05T09:02:54.360Z,101403.80
2019-02-05T09:05:22.416Z,101409.15
2019-02-05T09:07:50.395Z,101417.08
2019-02-05T09:10:21.294Z,101413.02
2019-02-05T09:12:49.986Z,101409.09
2019-02-05T09:15:28.867Z,101414.02
2019-02-05T09:17:47.672Z,101416.03
2019-02-05T09:20:16.354Z,101410.07
2019-02-05T09:22:44.501Z,101420.59
2019-02-05T09:25:12.714Z,101423.53
2019-02-05T09:27:40.577Z,101420.85
2019-02-05T09:30:14.135Z,101430.34
2019-02-05T09:32:42.090Z,101439.78
2019-02-05T09:35:10.520Z,101435.95
2019-02-05T09:37:38.385Z,101434.98
2019-02-05T09:40:08.937Z,101425.73
2019-02-05T09:42:36.799Z,101424.27
2019-02-05T09:45:05.630Z,101421.61
2019-02-05T09:47:33.626Z,101431.67
2019-02-05T09:50:01.474Z,101436.67
2019-02-05T09:52:29.784Z,101442.57
2019-02-05T09:54:57.661Z,101448.36
2019-02-05T09:57:25.723Z,101438.96
2019-02-05T09:59:53.534Z,101429.30
2019-02-05T10:02:21.429Z,101439.10
2019-02-05T10:04:49.229Z,101444.89
2019-02-05T10:07:17.078Z,101452.59
2019-02-05T10:09:45.505Z,101457.80
2019-02-05T10:12:13.728Z,101452.99
2019-02-05T10:14:42.481Z,101455.30
2019-02-05T10:17:10.502Z,101451.68
2019-02-05T10:19:38.241Z,101455.05
2019-02-05T10:22:06.216Z,101458.30
2019-02-05T10:24:34.142Z,101452.10
2019-02-05T10:27:01.949Z,101452.67
2019-02-05T10:29:29.783Z,101453.00
2019-02-05T10:31:57.680Z,101447.16
2019-02-05T10:34:33.856Z,101455.02
2019-02-05T10:36:55.385Z,101455.14
2019-02-05T10:39:23.302Z,101452.22
2019-02-05T10:41:51.372Z,101445.34
2019-02-05T10:44:20.384Z,101453.16
2019-02-05T10:46:48.228Z,101448.83
2019-02-05T10:49:16.107Z,101444.54
2019-02-05T10:51:44.115Z,101433.98
2019-02-05T10:54:11.896Z,101438.56
2019-02-05T10:56:39.841Z,101432.75
2019-02-05T10:59:07.808Z,101434.78
2019-02-05T11:01:36.144Z,101431.64
2019-02-05T11:04:04.113Z,101428.35
2019-02-05T11:06:32.144Z,101428.14
2019-02-05T11:08:59.932Z,101423.67
2019-02-05T11:11:27.808Z,101414.73
2019-02-05T11:13:55.734Z,101410.09
2019-02-05T11:16:23.493Z,101402.12
2019-02-05T11:18:51.311Z,101401.95
2019-02-05T11:21:19.288Z,101399.13
2019-02-05T11:23:47.040Z,101405.61
2019-02-05T11:26:15.243Z,101407.80
2019-02-05T11:28:43.074Z,101407.63
2019-02-05T11:31:10.972Z,101403.31
2019-02-05T11:33:38.838Z,101404.09
2019-02-05T11:36:06.877Z,101401.63
2019-02-05T11:38:34.632Z,101405.54
2019-02-05T11:41:02.571Z,101398.41
2019-02-05T11:43:30.409Z,101400.38
2019-02-05T11:45:58.455Z,101388.24
2019-02-05T11:48:26.511Z,101388.28
2019-02-05T11:50:54.377Z,101379.74
2019-02-05T11:53:22.275Z,101384.06
2019-02-05T11:55:50.266Z,101376.23
2019-02-05T11:58:18.001Z,101385.11
2019-02-05T12:00:50.700Z,101382.28
2019-02-05T12:03:19.429Z,101372.81
2019-02-05T12:05:47.487Z,101362.48
2019-02-05T12:08:18.476Z,101362.71
2019-02-05T12:10:45.681Z,101360.55
2019-02-05T12:13:13.599Z,101357.76
2019-02-05T12:15:41.753Z,101355.73
2019-02-05T12:18:09.777Z,101363.27
2019-02-05T12:20:37.729Z,101358.58
2019-02-05T12:23:05.937Z,101355.02
2019-02-05T12:25:34.512Z,101356.33
2019-02-05T12:28:02.582Z,101355.50
2019-02-05T12:30:43.812Z,101343.55
2019-02-05T12:33:02.779Z,101336.16
2019-02-05T12:35:30.817Z,101336.23
2019-02-05T12:37:58.767Z,101336.91
2019-02-05T12:40:26.893Z,101334.35
2019-02-05T12:42:54.864Z,101334.91
2019-02-05T12:45:25.065Z,101327.77
2019-02-05T12:47:52.993Z,101322.41
2019-02-05T12:50:25.274Z,101321.19
2019-02-05T12:52:53.507Z,101317.81
2019-02-05T12:55:22.121Z,101315.89
2019-02-05T12:57:50.157Z,101319.06
2019-02-05T13:00:24.047Z,101328.37
2019-02-05T13:02:54.415Z,101323.41
2019-02-05T13:05:22.112Z,101331.36
2019-02-05T13:07:50.084Z,101327.84
2019-02-05T13:10:21.016Z,101317.64
2019-02-05T13:12:48.971Z,101326.09
2019-02-05T13:15:16.878Z,101329.07
2019-02-05T13:17:44.767Z,101333.42
2019-02-05T13:20:21.218Z,101332.19
2019-02-05T13:22:49.702Z,101330.18
2019-02-05T13:25:20.270Z,101330.03
2019-02-05T13:27:48.420Z,101321.56
2019-02-05T13:30:20.294Z,101329.00
2019-02-05T13:32:48.548Z,101327.21
2019-02-05T13:35:17.765Z,101331.45
2019-02-05T13:37:45.761Z,101336.41
2019-02-05T13:40:16.156Z,101331.72
2019-02-05T13:42:44.143Z,101336.42
2019-02-05T13:45:14.370Z,101336.23
2019-02-05T13:47:42.362Z,101327.94
2019-02-05T13:50:14.027Z,101322.80
2019-02-05T13:52:42.052Z,101327.34
2019-02-05T13:55:11.396Z,101333.88
2019-02-05T13:57:39.582Z,101327.23
2019-02-05T14:00:12.883Z,101320.19
2019-02-05T14:02:41.079Z,101319.98
2019-02-05T14:05:09.583Z,101323.28
2019-02-05T14:07:37.673Z,101323.26
2019-02-05T14:10:09.239Z,101319.73
2019-02-05T14:12:37.136Z,101329.95
2019-02-05T14:15:06.222Z,101328.48
2019-02-05T14:17:34.185Z,101323.64
2019-02-05T14:20:02.212Z,101329.83
2019-02-05T14:22:29.995Z,101328.16
2019-02-05T14:24:58.401Z,101332.39
2019-02-05T14:27:26.322Z,101333.59
2019-02-05T14:29:54.109Z,101331.14
2019-02-05T14:32:21.962Z,101335.56
2019-02-05T14:34:49.824Z,101329.80
2019-02-05T14:37:17.868Z,101324.97
2019-02-05T14:39:45.630Z,101321.06
2019-02-05T14:42:14.886Z,101323.09
2019-02-05T14:44:43.382Z,101320.46
2019-02-05T14:47:11.255Z,101322.98
2019-02-05T14:49:39.119Z,101324.02
2019-02-05T14:52:07.008Z,101325.78
2019-02-05T14:54:34.900Z,101314.63
2019-02-05T14:57:02.849Z,101316.70
2019-02-05T14:59:32.117Z,101320.44
2019-02-05T15:02:00.126Z,101325.13
2019-02-05T15:04:28.792Z,101323.29
2019-02-05T15:06:56.756Z,101323.09
2019-02-05T15:09:24.637Z,101323.44
2019-02-05T15:11:57.369Z,101320.30
2019-02-05T15:14:25.360Z,101321.41
2019-02-05T15:16:53.115Z,101316.45
2019-02-05T15:19:21.160Z,101317.17
2019-02-05T15:21:49.014Z,101319.48
2019-02-05T15:24:17.098Z,101324.25
2019-02-05T15:26:45.006Z,101326.67
2019-02-05T15:29:12.796Z,101332.47
2019-02-05T15:31:40.767Z,101328.40
2019-02-05T15:34:18.409Z,101331.95
2019-02-05T15:36:48.525Z,101332.19
2019-02-05T15:39:16.684Z,101342.48
2019-02-05T15:41:44.894Z,101338.81
2019-02-05T15:44:13.354Z,101342.44
2019-02-05T15:46:42.024Z,101345.22
2019-02-05T15:49:10.051Z,101350.09
2019-02-05T15:51:37.936Z,101359.44
2019-02-05T15:54:06.065Z,101354.84
2019-02-05T15:56:34.105Z,101358.56
2019-02-05T15:59:02.089Z,101362.28
2019-02-05T16:01:30.115Z,101364.30
2019-02-05T16:03:58.199Z,101363.82
2019-02-05T16:06:27.669Z,101357.81
2019-02-05T16:08:55.549Z,101363.98
2019-02-05T16:11:23.403Z,101369.33
2019-02-05T16:13:56.417Z,101372.02
2019-02-05T16:16:24.597Z,101374.25
2019-02-05T16:18:53.453Z,101375.73
2019-02-05T16:21:26.699Z,101370.10
2019-02-05T16:23:54.666Z,101373.44
2019-02-05T16:26:22.647Z,101374.46
2019-02-05T16:28:50.629Z,101370.75
2019-02-05T16:31:18.841Z,101376.16
2019-02-05T16:33:46.716Z,101375.39
2019-02-05T16:36:15.452Z,101369.92
2019-02-05T16:38:43.408Z,101373.95
2019-02-05T16:41:11.423Z,101374.17
2019-02-05T16:43:39.190Z,101380.83
2019-02-05T16:46:07.089Z,101384.05
2019-02-05T16:48:35.322Z,101381.97
2019-02-05T16:51:03.500Z,101378.65
2019-02-05T16:53:31.399Z,101381.97
2019-02-05T16:56:00.991Z,101378.12
2019-02-05T16:58:29.091Z,101373.20
2019-02-05T17:00:56.843Z,101375.05
2019-02-05T17:03:24.674Z,101374.52
2019-02-05T17:05:52.946Z,101373.20
2019-02-05T17:08:20.814Z,101373.74
2019-02-05T17:10:50.621Z,101378.44
2019-02-05T17:13:18.607Z,101383.30
2019-02-05T17:15:49.170Z,101377.91
2019-02-05T17:18:23.653Z,101385.28
2019-02-05T17:20:47.608Z,101383.81
2019-02-05T17:23:15.635Z,101380.91
2019-02-05T17:25:43.667Z,101387.84
2019-02-05T17:28:11.646Z,101387.77
2019-02-05T17:30:39.725Z,101386.61
2019-02-05T17:33:07.655Z,101388.98
2019-02-05T17:35:35.980Z,101401.78
2019-02-05T17:38:06.635Z,101402.17
2019-02-05T17:40:34.858Z,101394.39
2019-02-05T17:43:02.705Z,101400.92
2019-02-05T17:45:35.772Z,101406.86
2019-02-05T17:48:06.844Z,101405.70
2019-02-05T17:50:34.775Z,101411.02
2019-02-05T17:53:03.464Z,101402.54
2019-02-05T17:55:31.330Z,101408.33
2019-02-05T17:57:59.410Z,101412.02
2019-02-05T18:00:36.763Z,101412.25
2019-02-05T18:03:04.923Z,101415.47
2019-02-05T18:05:34.879Z,101417.40
2019-02-05T18:08:02.734Z,101412.84
2019-02-05T18:10:30.645Z,101424.95
2019-02-05T18:12:58.422Z,101419.95
2019-02-05T18:15:28.949Z,101422.19
2019-02-05T18:18:01.855Z,101418.70
2019-02-05T18:20:29.906Z,101419.03
2019-02-05T18:22:57.811Z,101422.19
2019-02-05T18:25:25.755Z,101426.66
2019-02-05T18:27:53.763Z,101423.70
2019-02-05T18:30:24.401Z,101431.86
2019-02-05T18:33:02.798Z,101427.63
2019-02-05T18:35:22.406Z,101434.72
2019-02-05T18:37:51.007Z,101439.91
2019-02-05T18:40:20.361Z,101434.38
2019-02-05T18:42:48.451Z,101441.11
2019-02-05T18:45:16.842Z,101441.31
2019-02-05T18:47:46.141Z,101445.42
2019-02-05T18:50:19.915Z,101440.72
2019-02-05T18:52:47.993Z,101446.94
2019-02-05T18:55:15.957Z,101444.47
2019-02-05T18:57:44.104Z,101453.24
2019-02-05T19:00:15.949Z,101455.56
2019-02-05T19:02:43.843Z,101454.78
2019-02-05T19:05:12.220Z,101452.16
2019-02-05T19:07:41.298Z,101455.56
2019-02-05T19:10:12.066Z,101450.56
2019-02-05T19:12:39.932Z,101454.01
2019-02-05T19:15:15.685Z,101466.70
2019-02-05T19:17:43.688Z,101467.78
2019-02-05T19:20:14.758Z,101463.95
2019-02-05T19:22:42.918Z,101467.63
2019-02-05T19:25:20.809Z,101465.80
2019-02-05T19:27:49.182Z,101472.96
2019-02-05T19:30:18.389Z,101476.88
2019-02-05T19:32:46.444Z,101478.39
2019-02-05T19:35:14.798Z,101488.47
2019-02-05T19:37:42.721Z,101483.09
2019-02-05T19:40:10.886Z,101486.09
2019-02-05T19:42:38.817Z,101487.64
2019-02-05T19:45:25.286Z,101487.73
2019-02-05T19:47:53.830Z,101461.38
2019-02-05T19:50:21.583Z,101488.42
2019-02-05T19:52:49.499Z,101487.26
2019-02-05T19:55:17.507Z,101494.39
2019-02-05T19:57:45.920Z,101493.27
2019-02-05T20:00:14.637Z,101487.55
2019-02-05T20:02:42.649Z,101487.07
2019-02-05T20:05:10.639Z,101495.70
2019-02-05T20:07:38.668Z,101490.08
2019-02-05T20:10:08.006Z,101487.27
2019-02-05T20:12:35.924Z,101494.09
2019-02-05T20:15:05.618Z,101493.71
2019-02-05T20:17:33.398Z,101490.37
2019-02-05T20:20:01.217Z,101493.12
2019-02-05T20:22:39.614Z,101491.43
2019-02-05T20:25:08.765Z,101488.87
2019-02-05T20:27:36.710Z,101492.20
2019-02-05T20:30:05.678Z,101494.05
2019-02-05T20:32:34.147Z,101491.34
2019-02-05T20:35:02.123Z,101491.04
2019-02-05T20:37:30.196Z,101497.20
2019-02-05T20:39:57.999Z,101491.86
2019-02-05T20:42:26.276Z,101498.02
2019-02-05T20:44:54.822Z,101496.23
2019-02-05T20:47:22.684Z,101494.95
2019-02-05T20:49:50.658Z,101496.62
2019-02-05T20:52:18.559Z,101497.34
2019-02-05T20:54:46.388Z,101497.82
2019-02-05T20:57:14.441Z,101506.78
2019-02-05T20:59:42.501Z,101497.73
2019-02-05T21:02:10.915Z,101499.67
2019-02-05T21:04:48.474Z,101505.39
2019-02-05T21:07:11.790Z,101505.14
2019-02-05T21:09:42.177Z,101509.98
2019-02-05T21:12:10.089Z,101499.38
2019-02-05T21:14:37.961Z,101505.77
2019-02-05T21:17:05.902Z,101500.55
2019-02-05T21:19:33.950Z,101507.23
2019-02-05T21:22:02.017Z,101506.64
2019-02-05T21:24:32.358Z,101507.66
2019-02-05T21:27:00.221Z,101510.20
2019-02-05T21:29:28.278Z,101517.61
2019-02-05T21:31:56.211Z,101505.19
2019-02-05T21:34:24.745Z,101504.72
2019-02-05T21:36:52.923Z,101503.35
2019-02-05T21:39:20.754Z,101503.49
2019-02-05T21:41:48.532Z,101506.95
2019-02-05T21:44:16.398Z,101505.49
2019-02-05T21:46:44.940Z,101511.50
2019-02-05T21:49:12.831Z,101509.36
2019-02-05T21:51:42.636Z,101507.91
2019-02-05T21:54:10.750Z,101505.69
2019-02-05T21:56:38.628Z,101499.58
2019-02-05T21:59:07.011Z,101502.53
2019-02-05T22:01:34.883Z,101498.99
2019-02-05T22:04:03.102Z,101508.16
2019-02-05T22:06:31.194Z,101501.86
2019-02-05T22:08:59.194Z,101496.39
2019-02-05T22:11:27.286Z,101496.82
2019-02-05T22:13:55.209Z,101496.97
2019-02-05T22:16:23.155Z,101504.28
2019-02-05T22:18:51.155Z,101499.53
2019-02-05T22:21:19.921Z,101499.83
2019-02-05T22:23:47.852Z,101499.77
2019-02-05T22:26:15.715Z,101492.84
2019-02-05T22:28:43.606Z,101499.53
2019-02-05T22:31:12.026Z,101482.52
2019-02-05T22:33:40.022Z,101494.68
2019-02-05T22:36:08.359Z,101497.50
2019-02-05T22:38:36.935Z,101495.36
2019-02-05T22:41:04.976Z,101493.12
2019-02-05T22:43:32.908Z,101496.28
2019-02-05T22:46:00.911Z,101498.36
2019-02-05T22:48:29.156Z,101497.59
2019-02-05T22:50:57.246Z,101497.89
2019-02-05T22:53:25.425Z,101498.36
2019-02-05T22:55:54.062Z,101492.51
2019-02-05T22:58:25.442Z,101485.72
2019-02-05T23:01:43.709Z,101494.87
2019-02-05T23:04:50.537Z,101487.95
2019-02-05T23:07:14.758Z,101489.25
2019-02-05T23:10:12.237Z,101490.75
2019-02-05T23:12:56.148Z,101492.45
2019-02-05T23:15:28.831Z,101491.28
2019-02-05T23:17:55.792Z,101483.97
2019-02-05T23:20:23.945Z,101484.35
2019-02-05T23:22:51.903Z,101482.42
2019-02-05T23:25:19.919Z,101482.95
2019-02-05T23:27:48.201Z,101485.27
2019-02-05T23:30:19.428Z,101482.91
2019-02-05T23:32:47.360Z,101478.59
2019-02-05T23:35:15.516Z,101478.73
2019-02-05T23:37:44.050Z,101482.13
2019-02-05T23:40:12.843Z,101480.44
2019-02-05T23:42:40.780Z,101480.14
2019-02-05T23:45:09.206Z,101482.42
2019-02-05T23:47:37.132Z,101484.21
2019-02-05T23:50:06.663Z,101479.27
2019-02-05T23:52:34.397Z,101480.34
2019-02-05T23:55:03.045Z,101481.20
2019-02-05T23:57:30.909Z,101482.56
